Hlavní strana
METAR-TAF:

METAR-TAF

Letiště :

Kramfors, Švédsko

zeměpisná šířka: 63-03N, zeměpisná délka: 017-46E, výška: 10 m

Aktuální stav počasí

Zpráva byla vytvořena před 29 minutami, v 14:20 UTC
Bezvětří
Teplota 0°C
Vlhkost vzduchu 100%
Tlak 1029 hPa
Viditelnost: 2600 m
kouřmo

METAR: ESNK 211420Z AUTO 00000KT 2600 BR SCT002/// BKN004/// OVC007/// 00/00 Q1029

Čas: 15:49 (14:49 UTC)

Předpověď počasí

Zpráva byla vytvořena před 19 minutami, v 14:30 UTC
Předpověď platná od 21 v 15 UTC do 21 v 19 UTC
vítr z různých směrů 2 kt
Viditelnost: 6000 m
Polojasno ve výšce 400 ft
Zataženo ve výšce 1500 ft
Dočasný
od 21 v 15 UTC do 21 v 19 UTC
Viditelnost: 0500 m
ve výšce 200 ft
mrznoucí mlha

TAF: ESNK 211430Z 2115/2119 VRB02KT 6000 SCT004 OVC015 TEMPO 2115/2119 0500 FZFG VV002

Stav a předpovědi počasí z více než 4 000 letišť (zprávy METAR a TAF).

Červené a žluté tečky na mapě představují dostupné meteorologické stanice.

Když kurzor umístíte na tečku, zobrazí se název stanice.

Pak kliknutím zobrazíte stav a předpověď počasí.

Chcete-li změnit mapu, kliknutím na zelené tlačítko se znaménkem +mapu přiblížíte, kliknutím na zelené tlačítko se znaménkem – mapu oddálíte a kliknutím na zelené šipky přejdete na sousední mapy.


METAR-TAF: